createdAt,value
2018-10-12T00:00:28.814Z,12.00
2018-10-12T00:02:57.024Z,12.00
2018-10-12T00:05:25.246Z,12.00
2018-10-12T00:07:54.043Z,12.00
2018-10-12T00:10:22.280Z,12.00
2018-10-12T00:12:50.492Z,12.00
2018-10-12T00:15:18.700Z,12.00
2018-10-12T00:17:46.923Z,12.00
2018-10-12T00:20:15.140Z,12.00
2018-10-12T00:22:43.351Z,12.00
2018-10-12T00:25:11.555Z,12.00
2018-10-12T00:27:39.774Z,12.00
2018-10-12T00:30:07.984Z,12.00
2018-10-12T00:32:36.204Z,12.00
2018-10-12T00:35:04.467Z,12.00
2018-10-12T00:37:32.689Z,12.10
2018-10-12T00:40:00.899Z,12.00
2018-10-12T00:42:29.143Z,12.10
2018-10-12T00:44:57.582Z,12.00
2018-10-12T00:47:25.906Z,12.00
2018-10-12T00:49:54.161Z,12.10
2018-10-12T00:52:22.336Z,12.00
2018-10-12T00:54:50.542Z,12.00
2018-10-12T00:57:18.758Z,12.00
2018-10-12T00:59:46.983Z,12.00
2018-10-12T01:02:15.207Z,12.00
2018-10-12T01:04:43.419Z,12.00
2018-10-12T01:07:11.641Z,12.00
2018-10-12T01:09:39.942Z,12.00
2018-10-12T01:12:22.194Z,12.00
2018-10-12T01:14:50.547Z,12.00
2018-10-12T01:17:18.760Z,12.00
2018-10-12T01:19:46.992Z,12.00
2018-10-12T01:22:15.250Z,12.00
2018-10-12T01:24:43.467Z,12.10
2018-10-12T01:27:11.916Z,12.10
2018-10-12T01:29:40.122Z,12.10
2018-10-12T01:32:08.541Z,12.10
2018-10-12T01:34:37.000Z,12.10
2018-10-12T01:37:05.215Z,12.10
2018-10-12T01:39:33.644Z,12.10
2018-10-12T01:42:01.875Z,12.10
2018-10-12T01:44:30.076Z,12.10
2018-10-12T01:46:58.274Z,12.00
2018-10-12T01:49:26.466Z,12.00
2018-10-12T01:51:54.672Z,12.00
2018-10-12T01:54:22.868Z,12.00
2018-10-12T01:56:51.092Z,12.10
2018-10-12T01:59:19.502Z,12.00
2018-10-12T02:01:47.699Z,12.00
2018-10-12T02:04:15.890Z,12.10
2018-10-12T02:06:44.088Z,12.10
2018-10-12T02:09:12.304Z,12.10
2018-10-12T02:11:40.487Z,12.10
2018-10-12T02:14:08.924Z,12.10
2018-10-12T02:16:37.128Z,12.20
2018-10-12T02:19:05.463Z,12.20
2018-10-12T02:21:33.650Z,12.20
2018-10-12T02:24:02.439Z,12.20
2018-10-12T02:26:30.845Z,12.20
2018-10-12T02:28:59.684Z,12.20
2018-10-12T02:31:27.873Z,12.20
2018-10-12T02:33:56.072Z,12.10
2018-10-12T02:36:24.263Z,12.10
2018-10-12T02:38:52.477Z,12.10
2018-10-12T02:41:20.659Z,12.00
2018-10-12T02:43:49.310Z,11.80
2018-10-12T02:46:17.556Z,11.80
2018-10-12T02:48:45.783Z,11.70
2018-10-12T02:51:13.994Z,11.70
2018-10-12T02:53:42.211Z,11.60
2018-10-12T02:56:14.897Z,11.70
2018-10-12T02:58:43.348Z,11.60
2018-10-12T03:01:11.554Z,11.60
2018-10-12T03:03:40.002Z,11.60
2018-10-12T03:06:08.247Z,11.60
2018-10-12T03:08:36.563Z,11.50
2018-10-12T03:11:04.791Z,11.50
2018-10-12T03:13:33.007Z,11.60
2018-10-12T03:16:01.228Z,11.50
2018-10-12T03:18:29.457Z,11.60
2018-10-12T03:20:58.726Z,11.60
2018-10-12T03:23:27.716Z,11.60
2018-10-12T03:25:55.930Z,11.60
2018-10-12T03:28:25.999Z,11.60
2018-10-12T03:30:54.285Z,11.60
2018-10-12T03:33:22.590Z,11.60
2018-10-12T03:35:50.882Z,11.50
2018-10-12T03:38:19.091Z,11.50
2018-10-12T03:40:47.318Z,11.50
2018-10-12T03:43:15.544Z,11.50
2018-10-12T03:45:44.250Z,11.50
2018-10-12T03:48:12.494Z,11.40
2018-10-12T03:50:40.720Z,11.40
2018-10-12T03:53:09.679Z,11.30
2018-10-12T03:55:37.916Z,11.20
2018-10-12T03:58:06.175Z,11.20
2018-10-12T04:00:34.384Z,11.10
2018-10-12T04:03:02.605Z,11.10
2018-10-12T04:05:30.817Z,11.00
2018-10-12T04:07:59.028Z,10.90
2018-10-12T04:10:27.479Z,10.70
2018-10-12T04:12:56.017Z,10.60
2018-10-12T04:15:24.416Z,10.50
2018-10-12T04:17:52.621Z,10.40
2018-10-12T04:20:20.834Z,10.30
2018-10-12T04:22:49.053Z,10.20
2018-10-12T04:25:17.275Z,10.10
2018-10-12T04:27:45.960Z,10.10
2018-10-12T04:30:14.404Z,10.00
2018-10-12T04:32:42.838Z,9.90
2018-10-12T04:35:11.062Z,9.90
2018-10-12T04:37:39.308Z,9.80
2018-10-12T04:41:18.823Z,9.70
2018-10-12T04:43:48.544Z,9.60
2018-10-12T04:46:19.843Z,9.50
2018-10-12T04:48:49.263Z,9.40
2018-10-12T04:51:26.984Z,9.30
2018-10-12T04:53:55.288Z,9.30
2018-10-12T04:56:23.426Z,9.20
2018-10-12T04:58:51.640Z,9.10
2018-10-12T05:01:19.854Z,9.10
2018-10-12T05:03:48.080Z,9.00
2018-10-12T05:06:16.307Z,9.00
2018-10-12T05:08:44.544Z,8.90
2018-10-12T05:11:12.783Z,8.90
2018-10-12T05:13:41.031Z,8.80
2018-10-12T05:16:09.242Z,8.80
2018-10-12T05:18:37.703Z,8.70
2018-10-12T05:21:05.999Z,8.70
2018-10-12T05:23:34.199Z,8.60
2018-10-12T05:26:02.452Z,8.60
2018-10-12T05:28:32.529Z,8.50
2018-10-12T05:31:00.813Z,8.50
2018-10-12T05:33:29.002Z,8.50
2018-10-12T05:35:57.279Z,8.40
2018-10-12T05:38:26.828Z,8.40
2018-10-12T05:40:55.091Z,8.40
2018-10-12T05:43:23.435Z,8.30
2018-10-12T05:45:51.550Z,8.30
2018-10-12T05:48:31.025Z,8.20
2018-10-12T05:51:00.613Z,8.20
2018-10-12T05:53:29.392Z,8.20
2018-10-12T05:55:58.468Z,8.20
2018-10-12T05:58:26.716Z,8.10
2018-10-12T06:00:54.977Z,8.10
2018-10-12T06:03:23.184Z,8.10
2018-10-12T06:05:51.394Z,8.20
2018-10-12T06:08:19.598Z,8.40
2018-10-12T06:10:48.038Z,8.50
2018-10-12T06:13:16.251Z,8.50
2018-10-12T06:15:44.776Z,8.50
2018-10-12T06:18:13.493Z,8.60
2018-10-12T06:20:41.700Z,8.60
2018-10-12T06:23:09.923Z,8.60
2018-10-12T06:25:38.136Z,8.70
2018-10-12T06:28:06.383Z,8.80
2018-10-12T06:30:34.587Z,8.90
2018-10-12T06:33:02.947Z,8.90
2018-10-12T06:35:31.062Z,8.90
2018-10-12T06:37:59.987Z,9.00
2018-10-12T06:40:28.673Z,9.10
2018-10-12T06:42:56.887Z,9.20
2018-10-12T06:45:25.104Z,9.20
2018-10-12T06:47:53.309Z,9.30
2018-10-12T06:50:21.508Z,9.40
2018-10-12T06:52:50.148Z,9.50
2018-10-12T06:55:18.322Z,9.60
2018-10-12T06:57:46.546Z,9.60
2018-10-12T07:00:14.939Z,9.70
2018-10-12T07:02:43.165Z,9.90
2018-10-12T07:05:11.611Z,10.00
2018-10-12T07:07:39.810Z,10.10
2018-10-12T07:10:08.039Z,10.30
2018-10-12T07:12:36.244Z,10.40
2018-10-12T07:15:04.918Z,10.50
2018-10-12T07:17:33.106Z,10.70
2018-10-12T07:20:01.528Z,10.80
2018-10-12T07:22:29.715Z,10.90
2018-10-12T07:24:57.916Z,11.10
2018-10-12T07:27:26.190Z,11.30
2018-10-12T07:29:54.398Z,11.40
2018-10-12T07:32:22.603Z,11.60
2018-10-12T07:34:50.818Z,11.80
2018-10-12T07:37:19.114Z,12.10
2018-10-12T07:39:47.247Z,12.20
2018-10-12T07:42:15.479Z,12.30
2018-10-12T07:44:43.663Z,12.50
2018-10-12T07:47:11.916Z,12.60
2018-10-12T07:49:40.318Z,12.70
2018-10-12T07:52:08.732Z,12.90
2018-10-12T07:54:37.163Z,13.30
2018-10-12T07:57:12.381Z,14.00
2018-10-12T07:59:41.891Z,15.10
2018-10-12T08:02:11.182Z,15.60
2018-10-12T08:04:41.003Z,15.70
2018-10-12T08:07:09.782Z,15.70
2018-10-12T08:09:38.433Z,15.80
2018-10-12T08:12:06.763Z,16.20
2018-10-12T08:14:34.963Z,17.10
2018-10-12T08:17:03.168Z,18.50
2018-10-12T08:19:31.683Z,19.80
2018-10-12T08:21:59.876Z,19.90
2018-10-12T08:24:28.082Z,21.50
2018-10-12T08:26:56.323Z,22.50
2018-10-12T08:29:25.902Z,22.90
2018-10-12T08:31:54.348Z,23.20
2018-10-12T08:34:22.535Z,22.50
2018-10-12T08:36:50.962Z,23.90
2018-10-12T08:39:19.185Z,23.50
2018-10-12T08:41:47.407Z,24.50
2018-10-12T08:44:15.753Z,26.40
2018-10-12T08:46:43.964Z,27.20
2018-10-12T08:49:12.183Z,28.20
2018-10-12T08:51:40.382Z,29.30
2018-10-12T08:54:09.180Z,28.50
2018-10-12T08:56:38.480Z,27.70
2018-10-12T08:59:06.783Z,27.00
2018-10-12T09:01:34.987Z,27.80
2018-10-12T09:04:03.223Z,28.10
2018-10-12T09:06:32.228Z,28.10
2018-10-12T09:09:02.220Z,28.40
2018-10-12T09:11:30.487Z,28.60
2018-10-12T09:13:58.691Z,29.80
2018-10-12T09:16:27.019Z,28.50
2018-10-12T09:18:55.126Z,28.50
2018-10-12T09:21:23.352Z,27.70
2018-10-12T09:23:51.566Z,27.70
2018-10-12T09:26:19.801Z,27.80
2018-10-12T09:28:48.012Z,29.60
2018-10-12T09:31:16.239Z,28.30
2018-10-12T09:33:44.504Z,27.50
2018-10-12T09:36:12.663Z,29.30
2018-10-12T09:38:40.861Z,31.00
2018-10-12T09:41:09.093Z,31.00
2018-10-12T09:43:37.308Z,30.90
2018-10-12T09:46:05.578Z,28.90
2018-10-12T09:48:33.794Z,29.20
2018-10-12T09:51:02.235Z,30.20
2018-10-12T09:53:32.014Z,29.80
2018-10-12T09:56:00.289Z,29.80
2018-10-12T09:58:28.677Z,30.20
2018-10-12T10:01:02.504Z,30.80
2018-10-12T10:04:35.743Z,31.70
2018-10-12T10:07:04.626Z,31.90
2018-10-12T10:09:33.081Z,31.60
2018-10-12T10:12:01.300Z,31.10
2018-10-12T10:14:29.882Z,32.00
2018-10-12T10:16:58.094Z,32.90
2018-10-12T10:19:26.439Z,33.10
2018-10-12T10:21:54.595Z,34.60
2018-10-12T10:24:22.806Z,35.50
2018-10-12T10:26:51.037Z,33.00
2018-10-12T10:29:19.289Z,30.50
2018-10-12T10:31:47.454Z,29.40
2018-10-12T10:34:15.884Z,31.40
2018-10-12T10:36:44.098Z,32.40
2018-10-12T10:39:13.193Z,33.00
2018-10-12T10:41:42.388Z,34.30
2018-10-12T10:44:10.743Z,35.30
2018-10-12T10:46:38.940Z,36.00
2018-10-12T10:49:07.156Z,35.90
2018-10-12T10:51:35.363Z,34.90
2018-10-12T10:54:03.543Z,34.30
2018-10-12T10:56:31.758Z,34.50
2018-10-12T10:58:59.959Z,34.80
2018-10-12T11:01:28.393Z,34.50
2018-10-12T11:03:56.588Z,35.50
2018-10-12T11:06:25.201Z,35.60
2018-10-12T11:08:53.330Z,35.60
2018-10-12T11:11:21.738Z,35.60
2018-10-12T11:13:49.940Z,34.40
2018-10-12T11:16:18.126Z,35.30
2018-10-12T11:18:46.554Z,34.50
2018-10-12T11:21:14.737Z,34.20
2018-10-12T11:23:42.944Z,34.10
2018-10-12T11:26:11.176Z,34.20
2018-10-12T11:28:39.342Z,35.40
2018-10-12T11:31:08.117Z,35.90
2018-10-12T11:33:36.310Z,34.80
2018-10-12T11:36:04.511Z,32.70
2018-10-12T11:38:32.819Z,34.00
2018-10-12T11:41:00.899Z,32.90
2018-10-12T11:43:32.913Z,32.60
2018-10-12T11:46:01.739Z,31.00
2018-10-12T11:48:30.247Z,32.00
2018-10-12T11:50:59.064Z,31.30
2018-10-12T11:53:27.278Z,31.80
2018-10-12T11:55:55.920Z,33.30
2018-10-12T11:58:24.506Z,33.20
2018-10-12T12:00:52.979Z,33.70
2018-10-12T12:03:21.324Z,32.40
2018-10-12T12:05:49.764Z,32.40
2018-10-12T12:08:17.978Z,33.70
2018-10-12T12:10:46.426Z,34.60
2018-10-12T12:13:14.651Z,32.90
2018-10-12T12:15:42.872Z,34.40
2018-10-12T12:18:11.071Z,35.10
2018-10-12T12:20:39.325Z,36.10
2018-10-12T12:23:07.532Z,36.40
2018-10-12T12:25:35.751Z,36.70
2018-10-12T12:28:03.967Z,36.00
2018-10-12T12:30:32.191Z,37.00
2018-10-12T12:33:00.446Z,37.00
2018-10-12T12:35:28.937Z,37.20
2018-10-12T12:37:56.880Z,38.10
2018-10-12T12:40:25.096Z,37.60
2018-10-12T12:42:53.528Z,37.80
2018-10-12T12:45:21.720Z,38.90
2018-10-12T12:47:50.004Z,39.00
2018-10-12T12:50:18.103Z,37.70
2018-10-12T12:52:46.290Z,38.50
2018-10-12T12:55:14.474Z,37.60
2018-10-12T12:57:42.675Z,36.00
2018-10-12T13:00:10.883Z,37.10
2018-10-12T13:02:39.201Z,36.50
2018-10-12T13:05:07.408Z,35.70
2018-10-12T13:07:35.588Z,35.10
2018-10-12T13:10:03.783Z,34.70
2018-10-12T13:12:31.969Z,34.20
2018-10-12T13:15:00.164Z,33.60
2018-10-12T13:17:28.347Z,33.80
2018-10-12T13:19:56.540Z,34.40
2018-10-12T13:22:24.752Z,35.10
2018-10-12T13:24:52.954Z,35.20
2018-10-12T13:27:21.139Z,35.70
2018-10-12T13:29:49.323Z,34.60
2018-10-12T13:32:17.519Z,34.90
2018-10-12T13:34:45.720Z,35.10
2018-10-12T13:37:13.915Z,34.20
2018-10-12T13:39:42.365Z,33.20
2018-10-12T13:42:10.531Z,34.50
2018-10-12T13:44:38.755Z,35.70
2018-10-12T13:47:06.975Z,35.00
2018-10-12T13:49:35.193Z,35.30
2018-10-12T13:52:03.640Z,35.60
2018-10-12T13:54:32.084Z,36.30
2018-10-12T13:57:01.526Z,35.90
2018-10-12T13:59:30.828Z,35.40
2018-10-12T14:01:59.502Z,35.50
2018-10-12T14:04:28.606Z,34.70
2018-10-12T14:06:56.894Z,35.30
2018-10-12T14:09:25.551Z,35.00
2018-10-12T14:11:53.772Z,35.10
2018-10-12T14:14:21.971Z,35.40
2018-10-12T14:16:50.439Z,34.80
2018-10-12T14:19:19.176Z,34.90
2018-10-12T14:21:47.096Z,33.90
2018-10-12T14:24:15.530Z,32.10
2018-10-12T14:26:44.043Z,30.30
2018-10-12T14:29:12.183Z,29.10
2018-10-12T14:31:42.610Z,28.60
2018-10-12T14:34:10.856Z,29.00
2018-10-12T14:36:39.284Z,28.40
2018-10-12T14:39:09.063Z,27.80
2018-10-12T14:41:37.416Z,27.00
2018-10-12T14:44:05.821Z,26.60
2018-10-12T14:46:33.932Z,26.10
2018-10-12T14:49:02.144Z,25.70
2018-10-12T14:51:31.043Z,25.40
2018-10-12T14:53:59.579Z,25.20
2018-10-12T14:56:27.798Z,24.90
2018-10-12T14:58:56.409Z,24.80
2018-10-12T15:01:24.615Z,24.50
2018-10-12T15:03:52.838Z,24.20
2018-10-12T15:06:21.055Z,24.00
2018-10-12T15:08:49.278Z,23.90
2018-10-12T15:11:18.072Z,23.70
2018-10-12T15:13:46.308Z,23.50
2018-10-12T15:16:14.519Z,23.30
2018-10-12T15:18:42.958Z,23.20
2018-10-12T15:21:11.273Z,23.10
2018-10-12T15:23:39.388Z,23.00
2018-10-12T15:26:08.000Z,22.80
2018-10-12T15:28:36.235Z,22.70
2018-10-12T15:31:04.469Z,22.60
2018-10-12T15:33:32.919Z,22.40
2018-10-12T15:36:01.114Z,22.20
2018-10-12T15:38:29.365Z,21.90
2018-10-12T15:40:57.629Z,21.70
2018-10-12T15:43:26.032Z,21.40
2018-10-12T15:45:54.222Z,21.30
2018-10-12T15:48:22.655Z,21.10
2018-10-12T15:50:50.846Z,21.00
2018-10-12T15:53:19.123Z,20.80
2018-10-12T15:55:47.312Z,20.70
2018-10-12T15:58:15.730Z,20.60
2018-10-12T16:00:44.159Z,20.50
2018-10-12T16:03:12.568Z,20.50
2018-10-12T16:05:40.765Z,20.40
2018-10-12T16:08:09.584Z,20.30
2018-10-12T16:10:37.999Z,20.20
2018-10-12T16:13:06.728Z,20.00
2018-10-12T16:15:34.949Z,19.80
2018-10-12T16:18:03.613Z,19.70
2018-10-12T16:20:31.826Z,19.50
2018-10-12T16:23:00.045Z,19.30
2018-10-12T16:26:17.348Z,19.20
2018-10-12T16:28:45.540Z,19.10
2018-10-12T16:31:13.955Z,18.90
2018-10-12T16:33:42.167Z,18.80
2018-10-12T16:36:10.468Z,18.60
2018-10-12T16:38:38.623Z,18.50
2018-10-12T16:41:06.837Z,18.40
2018-10-12T16:43:35.044Z,18.30
2018-10-12T16:46:03.289Z,18.10
2018-10-12T16:48:31.487Z,18.00
2018-10-12T16:50:59.692Z,17.90
2018-10-12T16:53:27.896Z,17.70
2018-10-12T16:55:56.304Z,17.60
2018-10-12T16:58:24.574Z,17.40
2018-10-12T17:00:52.696Z,17.30
2018-10-12T17:03:20.890Z,17.20
2018-10-12T17:05:49.085Z,17.10
2018-10-12T17:08:17.511Z,17.00
2018-10-12T17:10:45.937Z,16.90
2018-10-12T17:13:14.163Z,16.80
2018-10-12T17:15:42.336Z,16.70
2018-10-12T17:18:10.558Z,16.60
2018-10-12T17:20:38.791Z,16.50
2018-10-12T17:23:07.095Z,16.40
2018-10-12T17:25:35.330Z,16.30
2018-10-12T17:28:03.892Z,16.20
2018-10-12T17:30:32.177Z,16.10
2018-10-12T17:33:00.348Z,16.00
2018-10-12T17:35:28.823Z,16.00
2018-10-12T17:37:57.066Z,15.80
2018-10-12T17:40:25.299Z,15.70
2018-10-12T17:42:53.563Z,15.70
2018-10-12T17:45:21.765Z,15.70
2018-10-12T17:47:49.970Z,15.60
2018-10-12T17:50:18.179Z,15.60
2018-10-12T17:52:46.627Z,15.50
2018-10-12T17:55:14.872Z,15.50
2018-10-12T17:57:43.089Z,15.50
2018-10-12T18:00:11.434Z,15.40
2018-10-12T18:02:39.493Z,15.30
2018-10-12T18:05:08.086Z,15.20
2018-10-12T18:07:36.278Z,15.20
2018-10-12T18:10:05.247Z,15.10
2018-10-12T18:12:33.449Z,15.00
2018-10-12T18:15:01.679Z,14.90
2018-10-12T18:17:29.846Z,14.80
2018-10-12T18:19:58.034Z,14.80
2018-10-12T18:22:26.452Z,14.70
2018-10-12T18:24:54.652Z,14.60
2018-10-12T18:27:22.849Z,14.50
2018-10-12T18:29:51.057Z,14.50
2018-10-12T18:32:19.249Z,14.40
2018-10-12T18:34:47.471Z,14.30
2018-10-12T18:37:15.659Z,14.30
2018-10-12T18:39:44.092Z,14.20
2018-10-12T18:42:12.292Z,14.10
2018-10-12T18:44:40.517Z,14.00
2018-10-12T18:47:08.704Z,13.80
2018-10-12T18:49:36.988Z,13.70
2018-10-12T18:52:05.193Z,13.60
2018-10-12T18:54:33.427Z,13.60
2018-10-12T18:57:01.659Z,13.50
2018-10-12T18:59:29.907Z,13.40
2018-10-12T19:01:58.054Z,13.30
2018-10-12T19:04:26.295Z,13.30
2018-10-12T19:06:54.455Z,13.10
2018-10-12T19:09:22.651Z,13.10
2018-10-12T19:11:50.852Z,13.00
2018-10-12T19:14:19.042Z,12.80
2018-10-12T19:16:47.244Z,12.80
2018-10-12T19:19:15.440Z,12.70
2018-10-12T19:21:43.635Z,12.70
2018-10-12T19:24:12.006Z,12.60
2018-10-12T19:26:40.510Z,12.50
2018-10-12T19:29:08.710Z,12.50
2018-10-12T19:31:37.234Z,12.50
2018-10-12T19:34:05.332Z,12.40
2018-10-12T19:36:33.551Z,12.40
2018-10-12T19:39:01.759Z,12.40
2018-10-12T19:41:30.024Z,12.30
2018-10-12T19:43:58.218Z,12.30
2018-10-12T19:46:26.411Z,12.30
2018-10-12T19:48:54.636Z,12.20
2018-10-12T19:51:22.794Z,12.20
2018-10-12T19:53:50.975Z,12.10
2018-10-12T19:56:19.334Z,12.10
2018-10-12T19:58:47.531Z,12.00
2018-10-12T20:01:15.802Z,12.00
2018-10-12T20:03:44.004Z,11.90
2018-10-12T20:06:12.426Z,11.90
2018-10-12T20:08:40.739Z,11.80
2018-10-12T20:11:08.940Z,11.80
2018-10-12T20:13:37.187Z,11.70
2018-10-12T20:16:05.399Z,11.70
2018-10-12T20:18:33.806Z,11.70
2018-10-12T20:21:02.027Z,11.70
2018-10-12T20:23:30.212Z,11.70
2018-10-12T20:25:58.422Z,11.70
2018-10-12T20:28:26.631Z,11.60
2018-10-12T20:30:54.828Z,11.60
2018-10-12T20:33:23.019Z,11.60
2018-10-12T20:35:51.851Z,11.50
2018-10-12T20:38:20.030Z,11.50
2018-10-12T20:40:48.239Z,11.50
2018-10-12T20:43:16.470Z,11.40
2018-10-12T20:45:44.679Z,11.40
2018-10-12T20:48:12.908Z,11.30
2018-10-12T20:50:41.495Z,11.30
2018-10-12T20:53:09.600Z,11.20
2018-10-12T20:55:37.814Z,11.20
2018-10-12T20:58:10.264Z,11.10
2018-10-12T21:00:38.515Z,11.00
2018-10-12T21:03:06.990Z,11.00
2018-10-12T21:05:35.201Z,10.90
2018-10-12T21:08:03.444Z,10.80
2018-10-12T21:10:31.873Z,10.80
2018-10-12T21:13:00.089Z,10.70
2018-10-12T21:15:28.298Z,10.70
2018-10-12T21:17:56.605Z,10.60
2018-10-12T21:20:24.726Z,10.60
2018-10-12T21:22:52.953Z,10.50
2018-10-12T21:25:21.517Z,10.50
2018-10-12T21:27:49.692Z,10.50
2018-10-12T21:30:17.899Z,10.40
2018-10-12T21:32:46.118Z,10.40
2018-10-12T21:35:14.556Z,10.40
2018-10-12T21:37:42.775Z,10.40
2018-10-12T21:40:11.088Z,10.40
2018-10-12T21:42:39.279Z,10.40
2018-10-12T21:45:07.492Z,10.30
2018-10-12T21:47:35.703Z,10.30
2018-10-12T21:50:03.906Z,10.30
2018-10-12T21:52:32.341Z,10.30
2018-10-12T21:55:00.579Z,10.20
2018-10-12T21:57:28.776Z,10.20
2018-10-12T21:59:57.253Z,10.20
2018-10-12T22:02:25.404Z,10.10
2018-10-12T22:04:53.604Z,10.10
2018-10-12T22:07:21.828Z,10.00
2018-10-12T22:09:50.014Z,10.00
2018-10-12T22:12:18.224Z,10.00
2018-10-12T22:14:46.430Z,10.00
2018-10-12T22:17:14.642Z,9.90
2018-10-12T22:19:42.859Z,9.90
2018-10-12T22:22:11.087Z,9.80
2018-10-12T22:24:39.292Z,9.80
2018-10-12T22:27:07.491Z,9.80
2018-10-12T22:29:35.705Z,9.80
2018-10-12T22:32:04.239Z,9.80
2018-10-12T22:34:32.520Z,9.80
2018-10-12T22:37:00.714Z,9.70
2018-10-12T22:39:28.935Z,9.70
2018-10-12T22:41:57.137Z,9.60
2018-10-12T22:44:25.323Z,9.50
2018-10-12T22:46:53.720Z,9.60
2018-10-12T22:49:21.904Z,9.60
2018-10-12T22:51:50.100Z,9.50
2018-10-12T22:54:18.344Z,9.50
2018-10-12T22:56:46.518Z,9.50
2018-10-12T22:59:14.704Z,9.40
2018-10-12T23:01:42.879Z,9.40
2018-10-12T23:04:11.071Z,9.40
2018-10-12T23:06:39.266Z,9.30
2018-10-12T23:09:09.273Z,9.20
2018-10-12T23:11:37.523Z,9.20
2018-10-12T23:14:06.500Z,9.20
2018-10-12T23:16:34.764Z,9.20
2018-10-12T23:19:03.008Z,9.20
2018-10-12T23:21:31.248Z,9.20
2018-10-12T23:23:59.568Z,9.10
2018-10-12T23:26:27.759Z,9.10
2018-10-12T23:28:55.973Z,9.10
2018-10-12T23:31:24.180Z,9.10
2018-10-12T23:34:00.280Z,9.10
2018-10-12T23:36:28.852Z,9.10
2018-10-12T23:38:57.540Z,9.00
2018-10-12T23:41:26.116Z,9.00
2018-10-12T23:43:54.388Z,9.00
2018-10-12T23:46:22.600Z,9.00
2018-10-12T23:48:50.817Z,9.00
2018-10-12T23:51:19.392Z,9.00
2018-10-12T23:53:47.587Z,9.00
2018-10-12T23:56:15.856Z,9.00
2018-10-12T23:58:44.451Z,9.10
